sensor_id;sensor_type;location;lat;lon;timestamp;temperature;humidity
27016;DHT22;14557;0.000;0.000;2023-05-10T00:01:28;23.00;71.40
27016;DHT22;14557;0.000;0.000;2023-05-10T00:03:53;23.00;71.70
27016;DHT22;14557;0.000;0.000;2023-05-10T00:06:19;23.00;71.10
27016;DHT22;14557;0.000;0.000;2023-05-10T00:08:44;23.00;70.90
27016;DHT22;14557;0.000;0.000;2023-05-10T00:11:10;23.00;71.20
27016;DHT22;14557;0.000;0.000;2023-05-10T00:13:36;23.00;71.10
27016;DHT22;14557;0.000;0.000;2023-05-10T00:16:01;23.00;71.10
27016;DHT22;14557;0.000;0.000;2023-05-10T00:18:27;23.00;71.20
27016;DHT22;14557;0.000;0.000;2023-05-10T00:20:53;22.90;71.00
27016;DHT22;14557;0.000;0.000;2023-05-10T00:23:18;22.90;71.20
27016;DHT22;14557;0.000;0.000;2023-05-10T00:25:44;22.90;71.00
27016;DHT22;14557;0.000;0.000;2023-05-10T00:28:09;22.90;71.10
27016;DHT22;14557;0.000;0.000;2023-05-10T00:30:35;22.90;71.20
27016;DHT22;14557;0.000;0.000;2023-05-10T00:33:01;22.90;71.20
27016;DHT22;14557;0.000;0.000;2023-05-10T00:35:26;22.90;71.30
27016;DHT22;14557;0.000;0.000;2023-05-10T00:37:52;22.90;71.10
27016;DHT22;14557;0.000;0.000;2023-05-10T00:40:17;22.80;71.20
27016;DHT22;14557;0.000;0.000;2023-05-10T00:42:44;22.80;71.30
27016;DHT22;14557;0.000;0.000;2023-05-10T00:45:10;22.80;71.20
27016;DHT22;14557;0.000;0.000;2023-05-10T00:47:36;22.80;71.00
27016;DHT22;14557;0.000;0.000;2023-05-10T00:50:02;22.80;70.90
27016;DHT22;14557;0.000;0.000;2023-05-10T00:52:28;22.80;71.00
27016;DHT22;14557;0.000;0.000;2023-05-10T00:54:54;22.80;71.20
27016;DHT22;14557;0.000;0.000;2023-05-10T00:57:20;22.80;71.30
27016;DHT22;14557;0.000;0.000;2023-05-10T00:59:46;22.70;70.80
27016;DHT22;14557;0.000;0.000;2023-05-10T01:02:13;22.70;71.20
27016;DHT22;14557;0.000;0.000;2023-05-10T01:04:38;22.70;71.10
27016;DHT22;14557;0.000;0.000;2023-05-10T01:07:04;22.70;70.90
27016;DHT22;14557;0.000;0.000;2023-05-10T01:09:30;22.70;70.90
27016;DHT22;14557;0.000;0.000;2023-05-10T01:11:56;22.70;71.10
27016;DHT22;14557;0.000;0.000;2023-05-10T01:14:21;22.70;71.20
27016;DHT22;14557;0.000;0.000;2023-05-10T01:16:48;22.70;71.60
27016;DHT22;14557;0.000;0.000;2023-05-10T01:24:47;22.60;71.00
27016;DHT22;14557;0.000;0.000;2023-05-10T01:35:29;22.50;71.70
27016;DHT22;14557;0.000;0.000;2023-05-10T01:40:26;22.50;71.60
27016;DHT22;14557;0.000;0.000;2023-05-10T01:42:54;22.50;70.90
27016;DHT22;14557;0.000;0.000;2023-05-10T01:45:27;22.50;70.00
27016;DHT22;14557;0.000;0.000;2023-05-10T01:47:57;22.50;69.60
27016;DHT22;14557;0.000;0.000;2023-05-10T01:50:24;22.50;69.70
27016;DHT22;14557;0.000;0.000;2023-05-10T01:52:54;22.50;69.70
27016;DHT22;14557;0.000;0.000;2023-05-10T01:55:20;22.50;70.00
27016;DHT22;14557;0.000;0.000;2023-05-10T01:57:46;22.40;69.60
27016;DHT22;14557;0.000;0.000;2023-05-10T02:00:13;22.40;70.20
27016;DHT22;14557;0.000;0.000;2023-05-10T02:02:40;22.40;69.50
27016;DHT22;14557;0.000;0.000;2023-05-10T02:05:07;22.40;69.20
27016;DHT22;14557;0.000;0.000;2023-05-10T02:07:36;22.40;69.60
27016;DHT22;14557;0.000;0.000;2023-05-10T02:10:02;22.40;69.10
27016;DHT22;14557;0.000;0.000;2023-05-10T02:12:29;22.40;69.80
27016;DHT22;14557;0.000;0.000;2023-05-10T02:14:55;22.40;69.20
27016;DHT22;14557;0.000;0.000;2023-05-10T02:17:22;22.30;69.10
27016;DHT22;14557;0.000;0.000;2023-05-10T02:19:48;22.40;69.50
27016;DHT22;14557;0.000;0.000;2023-05-10T02:22:14;22.40;69.60
27016;DHT22;14557;0.000;0.000;2023-05-10T02:24:41;22.30;70.10
27016;DHT22;14557;0.000;0.000;2023-05-10T02:27:07;22.30;70.30
27016;DHT22;14557;0.000;0.000;2023-05-10T02:29:34;22.30;70.70
27016;DHT22;14557;0.000;0.000;2023-05-10T02:32:01;22.30;70.70
27016;DHT22;14557;0.000;0.000;2023-05-10T02:34:27;22.30;70.70
27016;DHT22;14557;0.000;0.000;2023-05-10T02:36:53;22.30;70.80
27016;DHT22;14557;0.000;0.000;2023-05-10T02:39:19;22.30;71.00
27016;DHT22;14557;0.000;0.000;2023-05-10T02:41:46;22.20;70.70
27016;DHT22;14557;0.000;0.000;2023-05-10T02:44:12;22.20;70.70
27016;DHT22;14557;0.000;0.000;2023-05-10T02:46:39;22.20;70.70
27016;DHT22;14557;0.000;0.000;2023-05-10T02:49:05;22.20;71.10
27016;DHT22;14557;0.000;0.000;2023-05-10T02:51:31;22.20;70.70
27016;DHT22;14557;0.000;0.000;2023-05-10T02:53:57;22.20;70.90
27016;DHT22;14557;0.000;0.000;2023-05-10T02:56:31;22.20;70.50
27016;DHT22;14557;0.000;0.000;2023-05-10T02:58:58;22.20;69.50
27016;DHT22;14557;0.000;0.000;2023-05-10T03:01:23;22.20;70.00
27016;DHT22;14557;0.000;0.000;2023-05-10T03:03:49;22.10;70.00
27016;DHT22;14557;0.000;0.000;2023-05-10T03:06:15;22.10;69.80
27016;DHT22;14557;0.000;0.000;2023-05-10T03:08:42;22.10;70.00
27016;DHT22;14557;0.000;0.000;2023-05-10T03:13:49;22.10;70.10
27016;DHT22;14557;0.000;0.000;2023-05-10T03:16:22;22.10;72.00
27016;DHT22;14557;0.000;0.000;2023-05-10T03:21:34;22.10;71.50
27016;DHT22;14557;0.000;0.000;2023-05-10T03:24:07;22.10;72.00
27016;DHT22;14557;0.000;0.000;2023-05-10T03:26:33;22.10;72.00
27016;DHT22;14557;0.000;0.000;2023-05-10T03:28:59;22.00;72.30
27016;DHT22;14557;0.000;0.000;2023-05-10T03:31:25;22.10;72.60
27016;DHT22;14557;0.000;0.000;2023-05-10T03:33:51;22.10;73.30
27016;DHT22;14557;0.000;0.000;2023-05-10T03:36:18;22.00;73.50
27016;DHT22;14557;0.000;0.000;2023-05-10T03:38:43;22.10;73.40
27016;DHT22;14557;0.000;0.000;2023-05-10T03:41:09;22.00;73.40
27016;DHT22;14557;0.000;0.000;2023-05-10T03:43:35;22.10;73.40
27016;DHT22;14557;0.000;0.000;2023-05-10T03:46:04;22.00;73.20
27016;DHT22;14557;0.000;0.000;2023-05-10T03:48:30;22.00;73.30
27016;DHT22;14557;0.000;0.000;2023-05-10T03:50:56;22.00;73.30
27016;DHT22;14557;0.000;0.000;2023-05-10T03:53:22;22.00;73.30
27016;DHT22;14557;0.000;0.000;2023-05-10T03:55:48;22.00;73.40
27016;DHT22;14557;0.000;0.000;2023-05-10T03:58:14;21.90;73.40
27016;DHT22;14557;0.000;0.000;2023-05-10T04:00:39;21.90;73.40
27016;DHT22;14557;0.000;0.000;2023-05-10T04:03:13;22.00;73.30
27016;DHT22;14557;0.000;0.000;2023-05-10T04:05:39;21.90;73.40
27016;DHT22;14557;0.000;0.000;2023-05-10T04:08:05;22.00;73.80
27016;DHT22;14557;0.000;0.000;2023-05-10T04:10:31;22.00;73.80
27016;DHT22;14557;0.000;0.000;2023-05-10T04:12:57;22.00;73.90
27016;DHT22;14557;0.000;0.000;2023-05-10T04:15:22;22.00;73.80
27016;DHT22;14557;0.000;0.000;2023-05-10T04:17:48;21.90;73.90
27016;DHT22;14557;0.000;0.000;2023-05-10T04:20:14;21.90;73.80
27016;DHT22;14557;0.000;0.000;2023-05-10T04:22:39;21.90;73.90
27016;DHT22;14557;0.000;0.000;2023-05-10T04:25:06;21.90;73.90
27016;DHT22;14557;0.000;0.000;2023-05-10T04:27:32;21.90;73.80
27016;DHT22;14557;0.000;0.000;2023-05-10T04:29:57;21.90;73.80
27016;DHT22;14557;0.000;0.000;2023-05-10T04:32:23;21.90;73.80
27016;DHT22;14557;0.000;0.000;2023-05-10T04:34:49;21.90;73.80
27016;DHT22;14557;0.000;0.000;2023-05-10T04:37:16;21.90;73.90
27016;DHT22;14557;0.000;0.000;2023-05-10T04:39:41;21.90;73.80
27016;DHT22;14557;0.000;0.000;2023-05-10T04:42:07;21.90;74.10
27016;DHT22;14557;0.000;0.000;2023-05-10T04:44:32;21.80;74.10
27016;DHT22;14557;0.000;0.000;2023-05-10T04:46:58;21.80;74.40
27016;DHT22;14557;0.000;0.000;2023-05-10T04:49:24;21.80;75.20
27016;DHT22;14557;0.000;0.000;2023-05-10T04:51:50;21.90;77.00
27016;DHT22;14557;0.000;0.000;2023-05-10T04:54:15;21.90;76.00
27016;DHT22;14557;0.000;0.000;2023-05-10T04:56:41;21.90;74.90
27016;DHT22;14557;0.000;0.000;2023-05-10T04:59:06;21.80;74.70
27016;DHT22;14557;0.000;0.000;2023-05-10T05:01:32;21.80;74.80
27016;DHT22;14557;0.000;0.000;2023-05-10T05:03:58;21.80;74.90
27016;DHT22;14557;0.000;0.000;2023-05-10T05:06:23;21.80;74.60
27016;DHT22;14557;0.000;0.000;2023-05-10T05:08:50;21.80;74.70
27016;DHT22;14557;0.000;0.000;2023-05-10T05:11:16;21.80;74.50
27016;DHT22;14557;0.000;0.000;2023-05-10T05:13:42;21.80;74.60
27016;DHT22;14557;0.000;0.000;2023-05-10T05:16:07;21.80;74.40
27016;DHT22;14557;0.000;0.000;2023-05-10T05:18:33;21.80;74.30
27016;DHT22;14557;0.000;0.000;2023-05-10T05:20:59;21.80;74.20
27016;DHT22;14557;0.000;0.000;2023-05-10T05:23:24;21.80;74.20
27016;DHT22;14557;0.000;0.000;2023-05-10T05:25:52;21.80;74.10
27016;DHT22;14557;0.000;0.000;2023-05-10T05:28:21;21.80;74.00
27016;DHT22;14557;0.000;0.000;2023-05-10T05:30:47;21.80;74.00
27016;DHT22;14557;0.000;0.000;2023-05-10T05:33:13;21.80;73.90
27016;DHT22;14557;0.000;0.000;2023-05-10T05:35:38;21.80;74.60
27016;DHT22;14557;0.000;0.000;2023-05-10T05:38:04;21.70;73.70
27016;DHT22;14557;0.000;0.000;2023-05-10T05:40:30;21.70;73.60
27016;DHT22;14557;0.000;0.000;2023-05-10T05:42:56;21.70;73.60
27016;DHT22;14557;0.000;0.000;2023-05-10T05:45:21;21.70;73.50
27016;DHT22;14557;0.000;0.000;2023-05-10T05:47:47;21.70;73.40
27016;DHT22;14557;0.000;0.000;2023-05-10T05:50:12;21.70;73.30
27016;DHT22;14557;0.000;0.000;2023-05-10T05:52:38;21.70;73.40
27016;DHT22;14557;0.000;0.000;2023-05-10T05:55:04;21.70;73.30
27016;DHT22;14557;0.000;0.000;2023-05-10T05:57:29;21.70;73.30
27016;DHT22;14557;0.000;0.000;2023-05-10T05:59:55;21.60;73.30
27016;DHT22;14557;0.000;0.000;2023-05-10T06:02:21;21.60;73.20
27016;DHT22;14557;0.000;0.000;2023-05-10T06:04:47;21.60;73.30
27016;DHT22;14557;0.000;0.000;2023-05-10T06:07:12;21.60;73.30
27016;DHT22;14557;0.000;0.000;2023-05-10T06:09:38;21.60;73.20
27016;DHT22;14557;0.000;0.000;2023-05-10T06:12:03;21.60;73.30
27016;DHT22;14557;0.000;0.000;2023-05-10T06:14:29;21.60;73.30
27016;DHT22;14557;0.000;0.000;2023-05-10T06:16:55;21.60;73.50
27016;DHT22;14557;0.000;0.000;2023-05-10T06:19:20;21.60;73.50
27016;DHT22;14557;0.000;0.000;2023-05-10T06:21:46;21.60;73.40
27016;DHT22;14557;0.000;0.000;2023-05-10T06:24:11;21.60;73.40
27016;DHT22;14557;0.000;0.000;2023-05-10T06:26:37;21.60;73.30
27016;DHT22;14557;0.000;0.000;2023-05-10T06:29:02;21.60;73.20
27016;DHT22;14557;0.000;0.000;2023-05-10T06:31:28;21.60;73.20
27016;DHT22;14557;0.000;0.000;2023-05-10T06:33:54;21.60;73.00
27016;DHT22;14557;0.000;0.000;2023-05-10T06:36:19;21.60;73.00
27016;DHT22;14557;0.000;0.000;2023-05-10T06:38:45;21.60;72.60
27016;DHT22;14557;0.000;0.000;2023-05-10T06:41:10;21.60;72.60
27016;DHT22;14557;0.000;0.000;2023-05-10T06:43:36;21.60;72.70
27016;DHT22;14557;0.000;0.000;2023-05-10T06:46:05;21.60;72.60
27016;DHT22;14557;0.000;0.000;2023-05-10T06:48:30;21.60;72.50
27016;DHT22;14557;0.000;0.000;2023-05-10T06:50:56;21.60;72.60
27016;DHT22;14557;0.000;0.000;2023-05-10T06:53:22;21.60;72.80
27016;DHT22;14557;0.000;0.000;2023-05-10T06:55:48;21.60;72.80
27016;DHT22;14557;0.000;0.000;2023-05-10T06:58:14;21.60;72.80
27016;DHT22;14557;0.000;0.000;2023-05-10T07:00:39;21.50;73.00
27016;DHT22;14557;0.000;0.000;2023-05-10T07:03:07;21.50;73.00
27016;DHT22;14557;0.000;0.000;2023-05-10T07:05:33;21.50;73.00
27016;DHT22;14557;0.000;0.000;2023-05-10T07:07:59;21.50;73.80
27016;DHT22;14557;0.000;0.000;2023-05-10T07:10:25;21.50;72.80
27016;DHT22;14557;0.000;0.000;2023-05-10T07:12:50;21.50;72.70
27016;DHT22;14557;0.000;0.000;2023-05-10T07:15:16;21.50;73.10
27016;DHT22;14557;0.000;0.000;2023-05-10T07:17:42;21.50;73.00
27016;DHT22;14557;0.000;0.000;2023-05-10T07:20:07;21.50;73.00
27016;DHT22;14557;0.000;0.000;2023-05-10T07:22:33;21.50;73.20
27016;DHT22;14557;0.000;0.000;2023-05-10T07:24:59;21.50;74.60
27016;DHT22;14557;0.000;0.000;2023-05-10T07:27:24;21.60;76.80
27016;DHT22;14557;0.000;0.000;2023-05-10T07:29:50;21.60;75.80
27016;DHT22;14557;0.000;0.000;2023-05-10T07:32:16;21.60;77.30
27016;DHT22;14557;0.000;0.000;2023-05-10T07:34:41;21.70;76.70
27016;DHT22;14557;0.000;0.000;2023-05-10T07:37:07;21.70;74.40
27016;DHT22;14557;0.000;0.000;2023-05-10T07:39:33;21.70;74.30
27016;DHT22;14557;0.000;0.000;2023-05-10T07:41:59;21.80;74.10
27016;DHT22;14557;0.000;0.000;2023-05-10T07:44:24;21.80;78.10
27016;DHT22;14557;0.000;0.000;2023-05-10T07:46:50;21.80;75.70
27016;DHT22;14557;0.000;0.000;2023-05-10T07:49:16;21.80;74.90
27016;DHT22;14557;0.000;0.000;2023-05-10T07:51:41;21.90;74.60
27016;DHT22;14557;0.000;0.000;2023-05-10T07:54:07;21.90;74.90
27016;DHT22;14557;0.000;0.000;2023-05-10T07:56:33;21.80;74.90
27016;DHT22;14557;0.000;0.000;2023-05-10T07:58:59;21.90;74.80
27016;DHT22;14557;0.000;0.000;2023-05-10T08:01:26;21.80;74.20
27016;DHT22;14557;0.000;0.000;2023-05-10T08:03:51;21.90;74.10
27016;DHT22;14557;0.000;0.000;2023-05-10T08:06:18;21.90;73.90
27016;DHT22;14557;0.000;0.000;2023-05-10T08:08:47;21.90;75.70
27016;DHT22;14557;0.000;0.000;2023-05-10T08:11:16;21.90;76.40
27016;DHT22;14557;0.000;0.000;2023-05-10T08:13:42;22.00;75.10
27016;DHT22;14557;0.000;0.000;2023-05-10T08:16:07;22.00;74.00
27016;DHT22;14557;0.000;0.000;2023-05-10T08:18:33;22.10;73.40
27016;DHT22;14557;0.000;0.000;2023-05-10T08:20:58;22.10;72.80
27016;DHT22;14557;0.000;0.000;2023-05-10T08:23:24;22.10;72.30
27016;DHT22;14557;0.000;0.000;2023-05-10T08:25:50;22.10;72.40
27016;DHT22;14557;0.000;0.000;2023-05-10T08:28:15;22.10;73.20
27016;DHT22;14557;0.000;0.000;2023-05-10T08:30:41;22.20;73.60
27016;DHT22;14557;0.000;0.000;2023-05-10T08:33:07;22.20;73.20
27016;DHT22;14557;0.000;0.000;2023-05-10T08:35:32;22.20;72.90
27016;DHT22;14557;0.000;0.000;2023-05-10T08:37:59;22.20;72.00
27016;DHT22;14557;0.000;0.000;2023-05-10T08:40:25;22.20;71.80
27016;DHT22;14557;0.000;0.000;2023-05-10T08:42:55;22.20;71.70
27016;DHT22;14557;0.000;0.000;2023-05-10T08:45:23;22.20;72.30
27016;DHT22;14557;0.000;0.000;2023-05-10T08:47:49;22.30;73.80
27016;DHT22;14557;0.000;0.000;2023-05-10T08:50:17;22.30;73.50
27016;DHT22;14557;0.000;0.000;2023-05-10T08:52:44;22.30;73.20
27016;DHT22;14557;0.000;0.000;2023-05-10T08:55:10;22.30;72.80
27016;DHT22;14557;0.000;0.000;2023-05-10T08:57:36;22.30;72.30
27016;DHT22;14557;0.000;0.000;2023-05-10T09:00:02;22.30;72.40
27016;DHT22;14557;0.000;0.000;2023-05-10T09:02:28;22.30;71.90
27016;DHT22;14557;0.000;0.000;2023-05-10T09:04:53;22.30;71.80
27016;DHT22;14557;0.000;0.000;2023-05-10T09:07:19;22.30;72.40
27016;DHT22;14557;0.000;0.000;2023-05-10T09:09:45;22.30;71.70
27016;DHT22;14557;0.000;0.000;2023-05-10T09:12:11;22.20;71.50
27016;DHT22;14557;0.000;0.000;2023-05-10T09:14:37;22.20;71.50
27016;DHT22;14557;0.000;0.000;2023-05-10T09:17:03;22.20;72.20
27016;DHT22;14557;0.000;0.000;2023-05-10T09:19:29;22.20;72.30
27016;DHT22;14557;0.000;0.000;2023-05-10T09:21:54;22.20;72.00
27016;DHT22;14557;0.000;0.000;2023-05-10T09:24:24;22.20;72.00
27016;DHT22;14557;0.000;0.000;2023-05-10T09:26:50;22.20;71.90
27016;DHT22;14557;0.000;0.000;2023-05-10T09:29:16;22.20;71.70
27016;DHT22;14557;0.000;0.000;2023-05-10T09:34:15;22.20;71.40
27016;DHT22;14557;0.000;0.000;2023-05-10T09:36:54;22.20;71.30
27016;DHT22;14557;0.000;0.000;2023-05-10T09:39:20;22.20;71.10
27016;DHT22;14557;0.000;0.000;2023-05-10T09:41:46;22.20;71.10
27016;DHT22;14557;0.000;0.000;2023-05-10T09:44:14;22.20;71.00
27016;DHT22;14557;0.000;0.000;2023-05-10T09:46:42;22.20;70.60
27016;DHT22;14557;0.000;0.000;2023-05-10T09:49:08;22.20;70.50
27016;DHT22;14557;0.000;0.000;2023-05-10T09:51:36;22.20;69.90
27016;DHT22;14557;0.000;0.000;2023-05-10T09:54:15;22.30;70.00
27016;DHT22;14557;0.000;0.000;2023-05-10T09:56:41;22.30;69.70
27016;DHT22;14557;0.000;0.000;2023-05-10T09:59:08;22.30;71.00
27016;DHT22;14557;0.000;0.000;2023-05-10T10:01:34;22.40;70.40
27016;DHT22;14557;0.000;0.000;2023-05-10T10:04:07;22.50;71.40
27016;DHT22;14557;0.000;0.000;2023-05-10T10:06:39;22.50;70.30
27016;DHT22;14557;0.000;0.000;2023-05-10T10:09:05;22.50;70.20
27016;DHT22;14557;0.000;0.000;2023-05-10T10:11:31;22.60;70.20
27016;DHT22;14557;0.000;0.000;2023-05-10T10:13:58;22.60;69.20
27016;DHT22;14557;0.000;0.000;2023-05-10T10:16:24;22.70;69.20
27016;DHT22;14557;0.000;0.000;2023-05-10T10:18:50;22.70;69.10
27016;DHT22;14557;0.000;0.000;2023-05-10T10:21:15;22.70;69.00
27016;DHT22;14557;0.000;0.000;2023-05-10T10:23:42;22.70;69.00
27016;DHT22;14557;0.000;0.000;2023-05-10T10:26:08;22.70;69.10
27016;DHT22;14557;0.000;0.000;2023-05-10T10:31:25;22.80;68.80
27016;DHT22;14557;0.000;0.000;2023-05-10T10:34:01;22.80;68.70
27016;DHT22;14557;0.000;0.000;2023-05-10T10:36:28;22.80;68.50
27016;DHT22;14557;0.000;0.000;2023-05-10T10:38:55;22.80;68.50
27016;DHT22;14557;0.000;0.000;2023-05-10T10:46:58;22.90;68.30
27016;DHT22;14557;0.000;0.000;2023-05-10T10:49:23;22.90;68.40
27016;DHT22;14557;0.000;0.000;2023-05-10T10:54:33;23.10;67.80
27016;DHT22;14557;0.000;0.000;2023-05-10T10:57:19;23.20;67.30
27016;DHT22;14557;0.000;0.000;2023-05-10T10:59:45;23.20;67.20
27016;DHT22;14557;0.000;0.000;2023-05-10T11:02:33;23.20;67.00
27016;DHT22;14557;0.000;0.000;2023-05-10T11:05:00;23.30;66.80
27016;DHT22;14557;0.000;0.000;2023-05-10T11:07:26;23.30;66.80
27016;DHT22;14557;0.000;0.000;2023-05-10T11:09:51;23.30;66.50
27016;DHT22;14557;0.000;0.000;2023-05-10T11:12:17;23.30;66.50
27016;DHT22;14557;0.000;0.000;2023-05-10T11:14:42;23.40;66.40
27016;DHT22;14557;0.000;0.000;2023-05-10T11:17:24;23.40;66.30
27016;DHT22;14557;0.000;0.000;2023-05-10T11:20:02;23.50;66.10
27016;DHT22;14557;0.000;0.000;2023-05-10T11:22:28;23.60;66.10
27016;DHT22;14557;0.000;0.000;2023-05-10T11:24:57;23.60;66.00
27016;DHT22;14557;0.000;0.000;2023-05-10T11:27:25;23.70;65.10
27016;DHT22;14557;0.000;0.000;2023-05-10T11:29:51;23.70;69.30
27016;DHT22;14557;0.000;0.000;2023-05-10T11:32:17;23.80;70.90
27016;DHT22;14557;0.000;0.000;2023-05-10T11:34:46;23.80;70.80
27016;DHT22;14557;0.000;0.000;2023-05-10T11:37:13;23.90;69.70
27016;DHT22;14557;0.000;0.000;2023-05-10T11:39:38;23.90;69.10
27016;DHT22;14557;0.000;0.000;2023-05-10T11:42:11;23.90;69.50
27016;DHT22;14557;0.000;0.000;2023-05-10T11:44:37;23.90;69.80
27016;DHT22;14557;0.000;0.000;2023-05-10T11:47:02;23.80;69.60
27016;DHT22;14557;0.000;0.000;2023-05-10T11:49:28;23.90;69.30
27016;DHT22;14557;0.000;0.000;2023-05-10T11:52:03;23.80;75.10
27016;DHT22;14557;0.000;0.000;2023-05-10T11:54:28;23.90;76.00
27016;DHT22;14557;0.000;0.000;2023-05-10T11:56:54;23.90;72.20
27016;DHT22;14557;0.000;0.000;2023-05-10T11:59:20;23.90;71.10
27016;DHT22;14557;0.000;0.000;2023-05-10T12:01:45;24.00;70.60
27016;DHT22;14557;0.000;0.000;2023-05-10T12:04:11;24.00;70.00
27016;DHT22;14557;0.000;0.000;2023-05-10T12:06:39;24.00;69.30
27016;DHT22;14557;0.000;0.000;2023-05-10T12:09:06;24.00;68.70
27016;DHT22;14557;0.000;0.000;2023-05-10T12:11:35;24.00;68.50
27016;DHT22;14557;0.000;0.000;2023-05-10T12:14:03;24.00;67.60
27016;DHT22;14557;0.000;0.000;2023-05-10T12:16:30;24.10;77.00
27016;DHT22;14557;0.000;0.000;2023-05-10T12:18:56;24.20;79.00
27016;DHT22;14557;0.000;0.000;2023-05-10T12:21:22;24.30;73.10
27016;DHT22;14557;0.000;0.000;2023-05-10T12:23:51;24.30;70.60
27016;DHT22;14557;0.000;0.000;2023-05-10T12:26:17;24.30;72.60
27016;DHT22;14557;0.000;0.000;2023-05-10T12:28:43;24.30;76.90
27016;DHT22;14557;0.000;0.000;2023-05-10T12:31:09;24.40;79.10
27016;DHT22;14557;0.000;0.000;2023-05-10T12:33:39;24.30;79.50
27016;DHT22;14557;0.000;0.000;2023-05-10T12:36:06;24.40;76.40
27016;DHT22;14557;0.000;0.000;2023-05-10T12:38:33;24.30;76.70
27016;DHT22;14557;0.000;0.000;2023-05-10T12:41:02;24.40;70.50
27016;DHT22;14557;0.000;0.000;2023-05-10T12:43:28;24.40;71.80
27016;DHT22;14557;0.000;0.000;2023-05-10T12:45:54;24.40;70.00
27016;DHT22;14557;0.000;0.000;2023-05-10T12:48:20;24.50;69.20
27016;DHT22;14557;0.000;0.000;2023-05-10T12:50:46;24.50;67.90
27016;DHT22;14557;0.000;0.000;2023-05-10T12:53:13;24.50;67.40
27016;DHT22;14557;0.000;0.000;2023-05-10T12:55:39;24.50;67.20
27016;DHT22;14557;0.000;0.000;2023-05-10T12:58:04;24.50;69.30
27016;DHT22;14557;0.000;0.000;2023-05-10T13:00:30;24.50;68.50
27016;DHT22;14557;0.000;0.000;2023-05-10T13:02:56;24.50;67.90
27016;DHT22;14557;0.000;0.000;2023-05-10T13:05:21;24.50;67.40
27016;DHT22;14557;0.000;0.000;2023-05-10T13:07:47;24.50;67.30
27016;DHT22;14557;0.000;0.000;2023-05-10T13:10:12;24.50;67.20
27016;DHT22;14557;0.000;0.000;2023-05-10T13:12:38;24.50;67.00
27016;DHT22;14557;0.000;0.000;2023-05-10T13:15:04;24.40;66.80
27016;DHT22;14557;0.000;0.000;2023-05-10T13:17:29;24.40;67.00
27016;DHT22;14557;0.000;0.000;2023-05-10T13:19:55;24.40;67.00
27016;DHT22;14557;0.000;0.000;2023-05-10T13:22:20;24.50;67.10
27016;DHT22;14557;0.000;0.000;2023-05-10T13:24:46;24.40;67.00
27016;DHT22;14557;0.000;0.000;2023-05-10T13:27:12;24.40;66.90
27016;DHT22;14557;0.000;0.000;2023-05-10T13:29:37;24.40;66.90
27016;DHT22;14557;0.000;0.000;2023-05-10T13:32:03;24.40;66.80
27016;DHT22;14557;0.000;0.000;2023-05-10T13:34:29;24.40;66.50
27016;DHT22;14557;0.000;0.000;2023-05-10T13:36:54;24.40;66.60
27016;DHT22;14557;0.000;0.000;2023-05-10T13:39:21;24.40;66.50
27016;DHT22;14557;0.000;0.000;2023-05-10T13:41:47;24.40;66.40
27016;DHT22;14557;0.000;0.000;2023-05-10T13:44:13;24.40;66.50
27016;DHT22;14557;0.000;0.000;2023-05-10T13:46:39;24.50;66.40
27016;DHT22;14557;0.000;0.000;2023-05-10T13:49:05;24.50;66.30
27016;DHT22;14557;0.000;0.000;2023-05-10T13:51:30;24.40;66.20
27016;DHT22;14557;0.000;0.000;2023-05-10T13:53:59;24.40;66.20
27016;DHT22;14557;0.000;0.000;2023-05-10T13:56:25;24.40;66.20
27016;DHT22;14557;0.000;0.000;2023-05-10T13:58:50;24.40;66.10
27016;DHT22;14557;0.000;0.000;2023-05-10T14:01:16;24.50;65.90
27016;DHT22;14557;0.000;0.000;2023-05-10T14:03:42;24.50;66.00
27016;DHT22;14557;0.000;0.000;2023-05-10T14:06:08;24.50;66.20
27016;DHT22;14557;0.000;0.000;2023-05-10T14:08:34;24.50;66.20
27016;DHT22;14557;0.000;0.000;2023-05-10T14:10:59;24.50;66.70
27016;DHT22;14557;0.000;0.000;2023-05-10T14:13:25;24.50;66.10
27016;DHT22;14557;0.000;0.000;2023-05-10T14:15:52;24.50;65.90
27016;DHT22;14557;0.000;0.000;2023-05-10T14:18:17;24.50;66.10
27016;DHT22;14557;0.000;0.000;2023-05-10T14:20:43;24.50;66.10
27016;DHT22;14557;0.000;0.000;2023-05-10T14:23:08;24.50;66.10
27016;DHT22;14557;0.000;0.000;2023-05-10T14:25:34;24.50;66.20
27016;DHT22;14557;0.000;0.000;2023-05-10T14:28:00;24.50;65.40
27016;DHT22;14557;0.000;0.000;2023-05-10T14:30:25;24.50;69.60
27016;DHT22;14557;0.000;0.000;2023-05-10T14:32:51;24.50;67.90
27016;DHT22;14557;0.000;0.000;2023-05-10T14:35:19;24.50;66.80
27016;DHT22;14557;0.000;0.000;2023-05-10T14:37:44;24.50;65.30
27016;DHT22;14557;0.000;0.000;2023-05-10T14:40:10;24.50;64.30
27016;DHT22;14557;0.000;0.000;2023-05-10T14:42:36;24.50;63.40
27016;DHT22;14557;0.000;0.000;2023-05-10T14:45:02;24.50;62.90
27016;DHT22;14557;0.000;0.000;2023-05-10T14:47:27;24.50;62.40
27016;DHT22;14557;0.000;0.000;2023-05-10T14:49:53;24.50;61.70
27016;DHT22;14557;0.000;0.000;2023-05-10T14:52:18;24.40;62.00
27016;DHT22;14557;0.000;0.000;2023-05-10T14:54:44;24.40;61.80
27016;DHT22;14557;0.000;0.000;2023-05-10T14:57:10;24.40;64.10
27016;DHT22;14557;0.000;0.000;2023-05-10T14:59:35;24.40;63.10
27016;DHT22;14557;0.000;0.000;2023-05-10T15:02:01;24.40;62.20
27016;DHT22;14557;0.000;0.000;2023-05-10T15:04:27;24.40;61.30
27016;DHT22;14557;0.000;0.000;2023-05-10T15:06:52;24.40;61.10
27016;DHT22;14557;0.000;0.000;2023-05-10T15:09:24;24.30;60.90
27016;DHT22;14557;0.000;0.000;2023-05-10T15:11:50;24.30;60.00
27016;DHT22;14557;0.000;0.000;2023-05-10T15:14:16;24.30;64.90
27016;DHT22;14557;0.000;0.000;2023-05-10T15:16:41;24.30;62.70
27016;DHT22;14557;0.000;0.000;2023-05-10T15:19:07;24.20;61.50
27016;DHT22;14557;0.000;0.000;2023-05-10T15:21:32;24.20;61.20
27016;DHT22;14557;0.000;0.000;2023-05-10T15:24:06;24.20;60.80
27016;DHT22;14557;0.000;0.000;2023-05-10T15:26:32;24.20;61.20
27016;DHT22;14557;0.000;0.000;2023-05-10T15:28:58;24.20;61.20
27016;DHT22;14557;0.000;0.000;2023-05-10T15:31:23;24.20;60.90
27016;DHT22;14557;0.000;0.000;2023-05-10T15:33:49;24.20;60.90
27016;DHT22;14557;0.000;0.000;2023-05-10T15:36:14;24.20;61.00
27016;DHT22;14557;0.000;0.000;2023-05-10T15:38:43;24.10;60.70
27016;DHT22;14557;0.000;0.000;2023-05-10T15:41:08;24.10;60.40
27016;DHT22;14557;0.000;0.000;2023-05-10T15:43:34;24.20;60.70
27016;DHT22;14557;0.000;0.000;2023-05-10T15:45:59;24.20;65.10
27016;DHT22;14557;0.000;0.000;2023-05-10T15:48:25;24.20;63.60
27016;DHT22;14557;0.000;0.000;2023-05-10T15:50:50;24.30;71.70
27016;DHT22;14557;0.000;0.000;2023-05-10T15:53:16;24.40;74.40
27016;DHT22;14557;0.000;0.000;2023-05-10T15:55:42;24.40;90.10
27016;DHT22;14557;0.000;0.000;2023-05-10T15:58:07;24.40;77.70
27016;DHT22;14557;0.000;0.000;2023-05-10T16:00:33;24.50;75.70
27016;DHT22;14557;0.000;0.000;2023-05-10T16:02:59;24.50;72.10
27016;DHT22;14557;0.000;0.000;2023-05-10T16:05:25;24.40;68.10
27016;DHT22;14557;0.000;0.000;2023-05-10T16:07:54;24.50;67.60
27016;DHT22;14557;0.000;0.000;2023-05-10T16:10:19;24.40;65.90
27016;DHT22;14557;0.000;0.000;2023-05-10T16:12:45;24.40;65.40
27016;DHT22;14557;0.000;0.000;2023-05-10T16:15:11;24.40;65.00